Heat Index SAI AWOS Graphical Display Untitled Document
McPherson Airport, (MPR) Kansas
180
18:45
17/06/22
17
22
N/A
29.67
4200
1497
92(F), 33(C)
62(F), 17(C)
93 F
39%
CLR
10
N/A
N/A
N/A
18:45 zulu Wind 180 at 17 Knots, Gusting 22 Knots, Altimeter 29.67
METAR KMPR 221845Z AUTO 19017G22KT 10SM CLR 33/17 A2967 A02
METAR:
FAA Disclaimer--Advisory Use ONLY, not for flight info--
INFO:
Wind Direction:
Wind Speed:
Wind Gust:
Wind Variable:
Altimeter:
Dens Alt:
Elev:
Temp:
Dwpt:
Heat Index
Rel Humidity:
Ceiling:
Visibility:
Prsnt Wea:
PCPN:
Remarks:
NOTICE--Current weather data is more than 15 minutes old. The SAI AWOS/ASOS Display is inoperative at this time.
How to read the WebPage